Time;durP1;ratioP1;P1;durP2;ratioP2;P2;SDS_P1;SDS_P2;PMS_P1;PMS_P2;Temp;Humidity;BMP_temperature;BMP_pressure;BME280_temperature;BME280_humidity;BME280_pressure;Samples;Min_cycle;Max_cycle;Signal;HPM_P1;HPM_P2
2022/03/07 00:01:40;;;;;;;;;;;-2.80;99.90;;;-4.82;93.97;102289.72;2569491;30;137134;-41
2022/03/07 00:04:07;;;;;;;;;;;-2.80;99.90;;;-4.86;93.52;102288.16;2568026;30;137144;-41
2022/03/07 00:06:35;;;;;;;;;;;-2.90;99.90;;;-4.88;93.76;102290.03;2566420;30;138607;-41
2022/03/07 00:09:03;;;;;;;;;;;-2.90;99.90;;;-4.88;94.22;102290.03;2568516;30;137830;-41
2022/03/07 00:11:30;;;;;;;;;;;-2.90;99.90;;;-4.87;94.67;102294.44;2567924;30;139154;-40
2022/03/07 00:13:59;;;;;;;;;;;-2.90;99.90;;;-4.90;95.11;102291.91;2566147;30;137114;-41
2022/03/07 00:16:27;;;;;;;;;;;-2.90;99.90;;;-4.91;95.31;102298.19;2568648;30;139128;-41
2022/03/07 00:18:54;;;;;;;;;;;-2.90;99.90;;;-4.88;96.10;102292.72;2568788;30;136955;-40
2022/03/07 00:21:22;;;;;;;;;;;-2.90;99.90;;;-4.89;96.27;102301.63;2565673;30;138322;-41
2022/03/07 00:23:50;;;;;;;;;;;-2.90;99.90;;;-4.89;96.51;102304.28;2568624;30;138028;-41
2022/03/07 00:26:18;;;;;;;;;;;-2.90;99.90;;;-4.91;96.14;102301.72;2568710;30;139164;-41
2022/03/07 00:28:47;;;;;;;;;;;-2.90;99.90;;;-4.89;96.05;102306.97;2568492;30;137023;-41
2022/03/07 00:31:15;;;;;;;;;;;-2.90;99.90;;;-4.83;96.25;102311.97;2567312;30;139093;-40
2022/03/07 00:33:43;;;;;;;;;;;-2.90;99.90;;;-4.80;96.46;102313.63;2568737;30;137997;-41
2022/03/07 00:36:10;;;;;;;;;;;-2.90;99.90;;;-4.73;96.33;102311.53;2568358;30;138386;-40
2022/03/07 00:38:38;;;;;;;;;;;-2.80;99.90;;;-4.71;96.47;102307.00;2568275;30;138789;-41
2022/03/07 00:41:08;;;;;;;;;;;-2.80;99.90;;;-4.63;97.03;102310.13;2568468;30;136661;-41
2022/03/07 00:43:36;;;;;;;;;;;-2.80;99.90;;;-4.64;97.41;102303.97;2568815;30;137174;-41
2022/03/07 00:46:04;;;;;;;;;;;-2.70;99.90;;;-4.62;97.61;102317.19;2567141;30;139729;-41
2022/03/07 00:48:32;;;;;;;;;;;-2.70;99.90;;;-4.60;97.72;102319.78;2568947;30;136898;-40
2022/03/07 00:50:59;;;;;;;;;;;-2.70;99.90;;;-4.58;97.39;102321.41;2565856;30;138701;-41
2022/03/07 00:53:27;;;;;;;;;;;-2.70;99.90;;;-4.57;97.17;102317.81;2568986;30;136909;-41
2022/03/07 00:55:56;;;;;;;;;;;-2.60;99.90;;;-4.53;97.64;102318.53;2567554;30;139898;-41
2022/03/07 00:58:26;;;;;;;;;;;-2.60;99.90;;;-4.56;97.88;102321.34;2567537;30;137464;-40
2022/03/07 01:00:53;;;;;;;;;;;-2.60;99.90;;;-4.51;98.15;102321.97;2566677;30;138667;-41
2022/03/07 01:03:21;;;;;;;;;;;-2.60;99.90;;;-4.49;98.62;102312.97;2569615;30;137890;-41
2022/03/07 01:05:49;;;;;;;;;;;-2.60;99.90;;;-4.48;98.23;102311.16;2567643;30;138205;-41
2022/03/07 01:08:16;;;;;;;;;;;-2.60;99.90;;;-4.48;98.14;102316.50;2569168;30;137162;-41
2022/03/07 01:10:45;;;;;;;;;;;-2.60;99.90;;;-4.51;98.92;102298.00;2574585;30;138462;-40
2022/03/07 01:13:15;;;;;;;;;;;-2.50;99.90;;;-4.39;98.63;102313.34;2571790;30;138522;-40
2022/03/07 01:15:43;;;;;;;;;;;-2.50;99.90;;;-4.43;98.84;102313.59;2569765;30;138255;-39
2022/03/07 01:18:10;;;;;;;;;;;-2.50;99.90;;;-4.41;99.16;102311.72;2567808;30;138045;-39
2022/03/07 01:20:38;;;;;;;;;;;-2.50;99.90;;;-4.42;99.16;102318.00;2569513;30;137704;-40
2022/03/07 01:23:06;;;;;;;;;;;-2.50;99.90;;;-4.43;98.76;102322.44;2569531;30;138867;-39
2022/03/07 01:25:34;;;;;;;;;;;-2.50;99.90;;;-4.45;98.49;102316.34;2572232;30;138914;-40
2022/03/07 01:28:01;;;;;;;;;;;-2.50;99.90;;;-4.43;98.86;102318.94;2569212;30;136739;-39
2022/03/07 01:30:29;;;;;;;;;;;-2.50;99.90;;;-4.45;98.86;102316.34;2570248;30;137918;-40
2022/03/07 01:32:57;;;;;;;;;;;-2.50;99.90;;;-4.41;98.97;102306.41;2571190;30;138608;-42
2022/03/07 01:35:25;;;;;;;;;;;-2.50;99.90;;;-4.35;99.10;102303.41;2571463;30;138439;-40
2022/03/07 01:37:53;;;;;;;;;;;-2.50;99.90;;;-4.35;98.97;102303.41;2571655;30;139432;-40
2022/03/07 01:40:23;;;;;;;;;;;-2.50;99.90;;;-4.35;98.94;102298.97;2569514;30;138756;-38
2022/03/07 01:42:51;;;;;;;;;;;-2.40;99.90;;;-4.30;99.11;102304.03;2569772;30;137094;-41
2022/03/07 01:45:19;;;;;;;;;;;-2.40;99.90;;;-4.25;99.06;102309.13;2568867;30;139034;-41
2022/03/07 01:47:50;;;;;;;;;;;-2.40;99.90;;;-4.22;99.22;102301.84;2571289;30;138066;-40
2022/03/07 01:50:20;;;;;;;;;;;-2.30;99.90;;;-4.20;99.39;102297.31;2569316;30;139238;-41
2022/03/07 01:52:50;;;;;;;;;;;-2.30;99.90;;;-4.11;99.52;102295.09;2569626;30;137029;-40
2022/03/07 01:55:21;;;;;;;;;;;-2.30;99.90;;;-4.00;99.05;102279.38;2565631;30;141002;-40
2022/03/07 01:57:54;;;;;;;;;;;-2.20;99.90;;;-3.87;98.87;102289.41;2570609;30;136897;-40
2022/03/07 02:00:25;;;;;;;;;;;-2.10;99.90;;;-3.82;99.04;102282.00;2569861;30;140989;-39
2022/03/07 02:02:54;;;;;;;;;;;-2.00;99.90;;;-3.83;98.49;102282.97;2565771;30;139065;-40
2022/03/07 02:05:35;;;;;;;;;;;-2.00;99.90;;;-3.83;98.21;102274.97;2567067;30;139941;-40
2022/03/07 02:08:07;;;;;;;;;;;-2.00;99.90;;;-3.84;98.75;102275.91;2568320;30;138936;-40
2022/03/07 02:10:43;;;;;;;;;;;-2.00;99.90;;;-3.74;98.64;102284.28;2573754;30;139732;-39
2022/03/07 02:13:15;;;;;;;;;;;-1.90;99.90;;;-3.70;98.13;102284.03;2571238;30;139307;-42
2022/03/07 02:15:55;;;;;;;;;;;-1.90;99.90;;;-3.67;98.48;102285.66;2570880;30;140233;-39
2022/03/07 02:18:29;;;;;;;;;;;-1.90;99.90;;;-3.65;98.51;102281.09;2567899;30;137762;-39
2022/03/07 02:21:11;;;;;;;;;;;-1.80;99.90;;;-3.49;98.15;102287.31;2567214;30;139927;-40
2022/03/07 02:23:49;;;;;;;;;;;-1.70;99.90;;;-3.47;97.49;102285.44;2570967;30;139180;-42
2022/03/07 02:26:18;;;;;;;;;;;-1.70;99.90;;;-3.44;97.24;102289.75;2570644;30;139214;-40
2022/03/07 02:28:48;;;;;;;;;;;-1.70;99.90;;;-3.32;96.42;102277.50;2569486;30;137594;-41
2022/03/07 02:31:21;;;;;;;;;;;-1.60;99.90;;;-3.30;96.14;102280.97;2568774;30;138337;-40
2022/03/07 02:33:50;;;;;;;;;;;-1.50;99.90;;;-3.28;96.26;102284.41;2571086;30;139684;-40
2022/03/07 02:36:20;;;;;;;;;;;-1.50;99.90;;;-3.30;96.18;102280.97;2568574;30;140160;-40
2022/03/07 02:38:48;;;;;;;;;;;-1.50;99.90;;;-3.28;96.62;102284.41;2567772;30;139625;-40
2022/03/07 02:41:16;;;;;;;;;;;-1.50;99.90;;;-3.28;97.25;102280.88;2569159;30;138442;-40
2022/03/07 02:43:47;;;;;;;;;;;-1.50;99.90;;;-3.22;97.23;102284.06;2568952;30;139726;-39
2022/03/07 02:46:15;;;;;;;;;;;-1.40;99.90;;;-3.02;96.90;102290.09;2569556;30;138336;-39
2022/03/07 02:48:43;;;;;;;;;;;-1.30;99.90;;;-3.00;95.30;102290.00;2570510;30;139287;-42
2022/03/07 02:51:10;;;;;;;;;;;-1.30;99.90;;;-2.98;95.91;102293.44;2568840;30;138309;-40
2022/03/07 02:53:37;;;;;;;;;;;-1.30;99.90;;;-2.98;95.87;102277.41;2569458;30;138646;-40
2022/03/07 02:56:05;;;;;;;;;;;-1.20;99.90;;;-2.84;95.84;102290.84;2568731;30;138498;-40
2022/03/07 02:58:32;;;;;;;;;;;-1.10;99.90;;;-2.76;93.13;102277.91;2570965;30;137303;-40
2022/03/07 03:01:00;;;;;;;;;;;-1.00;99.90;;;-2.77;93.09;102281.53;2569651;30;139035;-41
2022/03/07 03:03:28;;;;;;;;;;;-1.00;99.90;;;-2.68;93.34;102284.59;2570525;30;137153;-42
2022/03/07 03:05:56;;;;;;;;;;;-1.00;99.90;;;-2.78;93.26;102282.47;2570518;30;138243;-40
2022/03/07 03:08:23;;;;;;;;;;;-1.00;99.90;;;-2.76;92.85;102277.91;2569742;30;137069;-40
2022/03/07 03:10:52;;;;;;;;;;;-1.00;99.90;;;-2.76;93.31;102279.72;2569570;30;138247;-40
2022/03/07 03:13:22;;;;;;;;;;;-1.00;99.90;;;-2.79;94.34;102286.09;2569359;30;137965;-40
2022/03/07 03:15:52;;;;;;;;;;;-1.00;99.90;;;-2.83;94.13;102275.66;2569260;30;138957;-40
2022/03/07 03:18:20;;;;;;;;;;;-1.00;99.90;;;-2.82;94.21;102285.41;2569717;30;137189;-40
2022/03/07 03:20:50;;;;;;;;;;;-1.00;99.90;;;-2.84;93.99;102285.50;2570269;30;138992;-40
2022/03/07 03:23:19;;;;;;;;;;;-1.00;99.90;;;-2.87;94.59;102285.69;2572077;30;136996;-43
2022/03/07 03:25:46;;;;;;;;;;;-1.10;99.90;;;-2.87;94.53;102295.50;2570089;30;138464;-40
2022/03/07 03:28:14;;;;;;;;;;;-1.10;99.90;;;-2.87;94.30;102291.03;2570109;30;137269;-39
2022/03/07 03:30:41;;;;;;;;;;;-1.10;99.90;;;-2.87;94.60;102293.69;2571024;30;138152;-40
2022/03/07 03:33:09;;;;;;;;;;;-1.10;99.90;;;-2.78;94.01;102303.00;2569505;30;137451;-39
2022/03/07 03:35:36;;;;;;;;;;;-1.00;99.90;;;-2.65;93.27;102305.81;2569228;30;138159;-42
2022/03/07 03:38:05;;;;;;;;;;;-0.90;99.90;;;-2.64;93.06;102296.84;2569766;30;137200;-40
2022/03/07 03:40:32;;;;;;;;;;;-0.90;99.90;;;-2.59;92.99;102297.44;2568277;30;138094;-40
2022/03/07 03:42:59;;;;;;;;;;;-0.90;99.90;;;-2.58;92.70;102301.84;2572599;30;136672;-40
2022/03/07 03:45:27;;;;;;;;;;;-0.80;99.90;;;-2.50;94.02;102306.75;2569961;30;139670;-40
2022/03/07 03:47:54;;;;;;;;;;;-0.80;99.90;;;-2.49;91.80;102303.97;2569602;30;136954;-40
2022/03/07 03:50:22;;;;;;;;;;;-0.80;99.90;;;-2.44;92.67;102305.50;2570915;30;138404;-40
2022/03/07 03:52:49;;;;;;;;;;;-0.70;99.90;;;-2.57;92.38;102303.56;2568932;30;137298;-41
2022/03/07 03:55:16;;;;;;;;;;;-0.70;99.90;;;-2.56;92.72;102304.41;2570461;30;138567;-40
2022/03/07 03:57:44;;;;;;;;;;;-0.80;99.90;;;-2.48;91.57;102307.50;2567853;30;137509;-40
2022/03/07 04:00:15;;;;;;;;;;;-0.70;99.90;;;-2.48;91.96;102305.69;2571273;30;139155;-40
2022/03/07 04:02:43;;;;;;;;;;;-0.70;99.90;;;-2.43;93.08;102308.09;2570924;30;139047;-40
2022/03/07 04:05:11;;;;;;;;;;;-0.70;99.90;;;-2.42;92.79;102308.94;2570436;30;138639;-40
2022/03/07 04:07:40;;;;;;;;;;;-0.70;99.90;;;-2.41;91.47;102311.53;2569092;30;137103;-40
2022/03/07 04:10:09;;;;;;;;;;;-0.70;99.90;;;-2.38;91.18;102307.81;2570342;30;137150;-39
2022/03/07 04:12:36;;;;;;;;;;;-0.60;99.90;;;-2.27;91.86;102315.19;2570746;30;138122;-40
2022/03/07 04:15:04;;;;;;;;;;;-0.60;99.90;;;-2.27;91.68;102325.88;2569328;30;139591;-42
2022/03/07 04:17:32;;;;;;;;;;;-0.50;99.90;;;-2.24;89.77;102310.53;2567146;30;137331;-39
2022/03/07 04:19:59;;;;;;;;;;;-0.50;99.90;;;-2.32;91.01;102280.72;2571659;30;138244;-40
2022/03/07 04:22:27;;;;;;;;;;;-0.50;99.90;;;-2.17;90.44;102309.19;2570057;30;137263;-40
2022/03/07 04:24:54;;;;;;;;;;;-0.40;99.90;;;-2.20;88.96;102314.72;2571574;30;139115;-41
2022/03/07 04:27:21;;;;;;;;;;;-0.40;99.90;;;-2.25;90.25;102310.63;2569993;30;137282;-40
2022/03/07 04:29:49;;;;;;;;;;;-0.50;99.90;;;-2.30;90.90;102313.56;2569625;30;138468;-40
2022/03/07 04:32:17;;;;;;;;;;;-0.50;99.90;;;-2.25;90.89;102324.00;2570976;30;137080;-39
2022/03/07 04:34:44;;;;;;;;;;;-0.50;99.90;;;-2.20;90.07;102311.22;2569001;30;137077;-40
2022/03/07 04:37:12;;;;;;;;;;;-0.50;99.90;;;-2.19;89.63;102307.59;2571484;30;137148;-40
2022/03/07 04:39:41;;;;;;;;;;;-0.50;99.90;;;-2.25;89.77;102300.78;2569195;30;138330;-40
2022/03/07 04:42:09;;;;;;;;;;;-0.50;99.90;;;-2.28;89.86;102310.78;2569265;30;137054;-39
2022/03/07 04:44:36;;;;;;;;;;;-0.50;99.90;;;-2.20;90.40;102306.69;2567128;30;139361;-39
2022/03/07 04:47:04;;;;;;;;;;;-0.50;99.90;;;-2.22;89.74;102315.78;2571507;30;137903;-41
2022/03/07 04:49:31;;;;;;;;;;;-0.50;99.90;;;-2.23;90.06;102314.06;2572175;30;138039;-40
2022/03/07 04:51:58;;;;;;;;;;;-0.50;99.90;;;-2.21;90.00;102315.69;2567957;30;137319;-40
2022/03/07 04:54:28;;;;;;;;;;;-0.50;99.90;;;-2.20;89.46;102312.06;2571339;30;138343;-40
2022/03/07 04:56:56;;;;;;;;;;;-0.50;99.90;;;-2.28;89.67;102305.44;2570444;30;137095;-41
2022/03/07 04:59:23;;;;;;;;;;;-0.50;99.90;;;-2.24;89.13;102312.34;2570951;30;138116;-40
2022/03/07 05:01:50;;;;;;;;;;;-0.50;99.90;;;-2.26;89.61;102315.09;2571003;30;137001;-40
2022/03/07 05:04:18;;;;;;;;;;;-0.50;99.90;;;-2.19;89.28;102316.44;2568219;30;138155;-40
2022/03/07 05:06:45;;;;;;;;;;;-0.50;99.90;;;-2.17;89.41;102309.19;2570880;30;137895;-40
2022/03/07 05:09:13;;;;;;;;;;;-0.40;99.90;;;-2.19;89.58;102316.44;2570018;30;138118;-41
2022/03/07 05:11:40;;;;;;;;;;;-0.40;99.90;;;-2.22;90.55;102315.78;2568432;30;137013;-40
2022/03/07 05:14:08;;;;;;;;;;;-0.50;99.90;;;-2.28;90.54;102319.69;2569417;30;139175;-39
2022/03/07 05:16:35;;;;;;;;;;;-0.50;99.90;;;-2.13;90.36;102325.06;2571896;30;137075;-40
2022/03/07 05:19:03;;;;;;;;;;;-0.40;99.90;;;-2.11;89.96;102323.16;2570176;30;138299;-41
2022/03/07 05:21:30;;;;;;;;;;;-0.40;99.90;;;-2.08;88.92;102328.34;2572755;30;137351;-39
2022/03/07 05:23:58;;;;;;;;;;;-0.40;99.90;;;-2.10;89.54;102325.75;2570215;30;139215;-40
2022/03/07 05:26:25;;;;;;;;;;;-0.40;99.90;;;-2.05;89.58;102323.63;2567964;30;137257;-40
2022/03/07 05:28:52;;;;;;;;;;;-0.30;99.90;;;-2.01;89.30;102335.03;2569541;30;139207;-39
2022/03/07 05:31:20;;;;;;;;;;;-0.30;99.90;;;-2.08;89.48;102333.69;2569651;30;137239;-40
2022/03/07 05:33:47;;;;;;;;;;;-0.30;99.90;;;-2.07;89.83;102332.72;2570299;30;138151;-40
2022/03/07 05:36:15;;;;;;;;;;;-0.30;99.90;;;-1.94;89.13;102330.19;2570982;30;137988;-40
2022/03/07 05:38:42;;;;;;;;;;;-0.30;99.90;;;-2.01;89.74;102329.69;2570069;30;137343;-40
2022/03/07 05:41:09;;;;;;;;;;;-0.30;99.90;;;-1.98;88.77;102326.81;2570766;30;137222;-40
2022/03/07 05:43:37;;;;;;;;;;;-0.30;99.90;;;-2.01;89.16;102327.00;2566512;30;138413;-40
2022/03/07 05:46:06;;;;;;;;;;;-0.30;99.90;;;-2.03;88.77;102328.91;2570763;30;136817;-41
2022/03/07 05:48:33;;;;;;;;;;;-0.30;99.90;;;-2.20;89.28;102324.59;2570172;30;138227;-40
2022/03/07 05:51:01;;;;;;;;;;;-0.40;99.90;;;-2.10;89.58;102330.25;2570946;30;136948;-40
2022/03/07 05:53:28;;;;;;;;;;;-0.30;99.90;;;-2.19;89.90;102327.16;2572082;30;138896;-40
2022/03/07 05:55:55;;;;;;;;;;;-0.40;99.90;;;-2.36;90.18;102309.44;2569239;30;136966;-40
2022/03/07 05:58:23;;;;;;;;;;;-0.40;99.90;;;-2.21;91.21;102331.72;2574726;30;137408;-43
2022/03/07 06:00:50;;;;;;;;;;;-0.50;99.90;;;-2.25;91.04;102334.69;2568844;30;138153;-39
2022/03/07 06:03:17;;;;;;;;;;;-0.50;99.90;;;-2.31;90.87;102327.91;2569704;30;138104;-40
2022/03/07 06:05:45;;;;;;;;;;;-0.60;99.90;;;-2.17;89.25;102327.91;2569710;30;137784;-41
2022/03/07 06:08:17;;;;;;;;;;;-0.50;99.90;;;-2.15;88.23;102330.50;2569970;30;138416;-40
2022/03/07 06:10:45;;;;;;;;;;;-0.40;99.90;;;-2.10;88.53;102333.75;2569269;30;138136;-40
2022/03/07 06:13:12;;;;;;;;;;;-0.40;99.90;;;-2.08;87.45;102336.34;2570251;30;138173;-40
2022/03/07 06:15:43;;;;;;;;;;;-0.40;99.90;;;-2.01;86.99;102343.06;2569733;30;137146;-41
2022/03/07 06:18:12;;;;;;;;;;;-0.30;99.90;;;-2.07;86.69;102338.09;2572334;30;138341;-40
2022/03/07 06:20:40;;;;;;;;;;;-0.30;99.90;;;-1.99;86.18;102349.16;2567705;30;137264;-39
2022/03/07 06:23:07;;;;;;;;;;;-0.30;99.90;;;-1.92;85.12;102345.16;2569992;30;137398;-40
2022/03/07 06:25:35;;;;;;;;;;;-0.20;99.90;;;-1.96;85.45;102345.47;2569706;30;137112;-40
2022/03/07 06:28:03;;;;;;;;;;;-0.20;99.90;;;-2.04;85.91;102344.09;2569370;30;138158;-40
2022/03/07 06:30:31;;;;;;;;;;;-0.30;99.90;;;-2.01;85.74;102345.72;2567866;30;136895;-40
2022/03/07 06:32:59;;;;;;;;;;;-0.30;99.90;;;-2.15;86.25;102332.31;2570333;30;138806;-40
2022/03/07 06:35:26;;;;;;;;;;;-0.30;99.90;;;-2.00;84.86;102344.78;2569494;30;137062;-39
2022/03/07 06:37:53;;;;;;;;;;;-0.30;99.90;;;-1.98;84.49;102350.88;2567850;30;139219;-40
2022/03/07 06:40:22;;;;;;;;;;;-0.30;99.90;;;-2.05;84.92;102358.41;2571147;30;137121;-40
2022/03/07 06:42:50;;;;;;;;;;;-0.30;99.90;;;-2.07;85.38;102356.81;2567994;30;138397;-40
2022/03/07 06:45:18;;;;;;;;;;;-0.30;99.90;;;-2.08;84.88;102366.63;2569273;30;137254;-39
2022/03/07 06:47:46;;;;;;;;;;;-0.30;99.90;;;-2.11;85.16;102358.78;2569872;30;138926;-40
2022/03/07 06:50:15;;;;;;;;;;;-0.40;99.90;;;-2.07;85.06;102364.81;2568816;30;136637;-40
2022/03/07 06:52:43;;;;;;;;;;;-0.40;99.90;;;-2.08;85.77;102360.44;2569684;30;138964;-39
2022/03/07 06:55:11;;;;;;;;;;;-0.40;99.90;;;-2.01;85.62;102369.81;2570450;30;137033;-40
2022/03/07 06:57:39;;;;;;;;;;;-0.30;99.90;;;-1.85;84.72;102360.88;2571105;30;139647;-40
2022/03/07 07:00:08;;;;;;;;;;;-0.30;99.90;;;-1.77;84.80;102366.59;2569128;30;138582;-40
2022/03/07 07:02:36;;;;;;;;;;;-0.10;99.90;;;-1.77;84.76;102355.91;2569380;30;138353;-42
2022/03/07 07:05:04;;;;;;;;;;;-0.10;99.90;;;-1.71;84.25;102368.06;2568307;30;137236;-40
2022/03/07 07:12:38;;;;;;;;;;;-0.10;99.90;;;-1.38;82.67;102370.44;2568959;30;137262;-41
2022/03/07 07:15:06;;;;;;;;;;;0.20;99.90;;;-1.08;79.76;102365.94;2566905;30;136788;-41
2022/03/07 07:17:34;;;;;;;;;;;0.40;99.90;;;-0.98;80.23;102360.84;2568135;30;138858;-41
2022/03/07 07:20:04;;;;;;;;;;;0.50;99.90;;;-0.77;78.66;102370.19;2568011;30;137186;-42
2022/03/07 07:22:31;;;;;;;;;;;0.70;99.90;;;-0.60;77.47;102368.19;2567495;30;138277;-42
2022/03/07 07:25:00;;;;;;;;;;;0.90;99.90;;;-0.57;77.40;102375.19;2567345;30;136700;-42
2022/03/07 07:27:28;;;;;;;;;;;0.90;99.90;;;-0.55;76.75;102360.69;2568151;30;138290;-42
2022/03/07 07:29:56;;;;;;;;;;;1.00;99.90;;;-0.46;76.18;102378.88;2566995;30;136676;-41
2022/03/07 07:32:24;;;;;;;;;;;1.10;99.90;;;-0.38;75.41;102374.81;2568655;30;138517;-42
2022/03/07 07:34:51;;;;;;;;;;;1.10;99.90;;;-0.28;74.33;102375.06;2568430;30;137041;-42
2022/03/07 07:37:19;;;;;;;;;;;1.20;99.90;;;-0.13;72.70;102376.72;2568736;30;138495;-41
2022/03/07 07:39:47;;;;;;;;;;;1.40;99.90;;;-0.04;73.11;102378.78;2566002;30;137115;-41
2022/03/07 07:42:14;;;;;;;;;;;1.50;99.90;;;0.15;71.55;102372.16;2568106;30;138082;-41
2022/03/07 07:44:41;;;;;;;;;;;1.60;99.90;;;0.30;71.67;102372.03;2568020;30;137205;-41
2022/03/07 07:47:09;;;;;;;;;;;1.80;99.90;;;0.38;71.17;102372.34;2566930;30;138237;-42
2022/03/07 07:49:37;;;;;;;;;;;1.90;99.90;;;0.41;69.34;102378.38;2567802;30;137174;-42
2022/03/07 07:52:05;;;;;;;;;;;2.00;99.90;;;0.55;68.96;102376.56;2567882;30;139112;-41
2022/03/07 07:54:32;;;;;;;;;;;2.10;99.90;;;0.58;68.63;102370.97;2568263;30;137918;-41
2022/03/07 07:57:03;;;;;;;;;;;2.20;99.90;;;0.70;67.74;102378.16;2568744;30;138312;-41
2022/03/07 07:59:31;;;;;;;;;;;2.20;99.90;;;0.78;65.20;102377.63;2567181;30;137002;-41
2022/03/07 08:01:58;;;;;;;;;;;2.30;99.90;;;0.89;65.59;102375.97;2568375;30;137003;-41
2022/03/07 08:04:26;;;;;;;;;;;2.40;99.90;;;0.91;65.29;102377.59;2568762;30;137172;-42
2022/03/07 08:06:54;;;;;;;;;;;2.50;99.90;;;0.83;66.55;102383.50;2568195;30;138408;-42
2022/03/07 08:09:21;;;;;;;;;;;2.40;99.90;;;0.84;67.46;102371.78;2569502;30;137074;-42
2022/03/07 08:11:49;;;;;;;;;;;2.50;99.90;;;0.83;64.38;102382.66;2568582;30;138206;-41
2022/03/07 08:14:16;;;;;;;;;;;2.40;99.90;;;0.95;65.86;102389.00;2568854;30;137150;-42
2022/03/07 08:16:44;;;;;;;;;;;2.50;99.90;;;1.09;65.56;102388.00;2567834;30;137223;-41
2022/03/07 08:19:11;;;;;;;;;;;2.60;99.90;;;1.20;64.77;102385.38;2566223;30;137755;-41
2022/03/07 08:21:38;;;;;;;;;;;2.70;99.90;;;1.29;65.36;102386.53;2568605;30;137491;-42
2022/03/07 08:24:06;;;;;;;;;;;2.80;99.90;;;1.41;65.28;102392.84;2568459;30;137113;-42
2022/03/07 08:26:34;;;;;;;;;;;2.90;99.90;;;1.50;64.96;102393.97;2566884;30;138363;-41
2022/03/07 08:29:01;;;;;;;;;;;3.00;99.90;;;1.61;64.77;102390.50;2569188;30;137212;-41
2022/03/07 08:31:28;;;;;;;;;;;3.10;99.90;;;1.69;64.16;102380.00;2568833;30;138276;-42
2022/03/07 08:33:56;;;;;;;;;;;3.10;99.90;;;1.73;63.94;102389.56;2567430;30;136642;-42
2022/03/07 08:36:23;;;;;;;;;;;3.20;99.90;;;1.79;62.78;102388.25;2569096;30;138367;-42
2022/03/07 08:38:51;;;;;;;;;;;3.30;99.90;;;1.76;60.13;102385.78;2569368;30;136914;-41
2022/03/07 08:41:18;;;;;;;;;;;3.30;99.90;;;1.79;61.73;102389.09;2568266;30;138135;-42
2022/03/07 08:43:48;;;;;;;;;;;3.40;99.90;;;1.91;61.43;102389.16;2568270;30;137192;-41
2022/03/07 08:46:16;;;;;;;;;;;3.40;99.90;;;1.99;61.42;102389.41;2569223;30;139246;-41
2022/03/07 08:48:43;;;;;;;;;;;3.50;99.90;;;2.00;61.85;102393.81;2569041;30;136693;-41
2022/03/07 08:51:11;;;;;;;;;;;3.50;99.90;;;2.00;59.86;102385.75;2566397;30;138197;-41
2022/03/07 08:53:38;;;;;;;;;;;3.50;99.90;;;2.11;61.85;102385.75;2567979;30;136980;-41
2022/03/07 08:56:05;;;;;;;;;;;3.60;99.90;;;2.25;63.02;102387.38;2568323;30;138371;-42
2022/03/07 08:58:52;;;;;;;;;;;3.70;99.90;;;2.36;59.98;102391.09;2568357;30;136654;-41
2022/03/07 09:01:20;;;;;;;;;;;3.80;99.90;;;2.38;59.35;102391.84;2568944;30;137473;-41
2022/03/07 09:03:48;;;;;;;;;;;3.90;99.90;;;2.49;60.42;102399.94;2568523;30;136599;-42
2022/03/07 09:06:16;;;;;;;;;;;4.00;99.90;;;2.51;59.50;102387.19;2568340;30;138457;-42
2022/03/07 09:08:43;;;;;;;;;;;4.00;99.90;;;2.61;59.48;102390.00;2568686;30;136956;-42
2022/03/07 09:11:10;;;;;;;;;;;4.10;99.90;;;2.64;59.01;102383.53;2566885;30;137563;-42
2022/03/07 09:13:38;;;;;;;;;;;4.10;99.90;;;2.69;58.95;102384.91;2569231;30;136796;-42
2022/03/07 09:16:05;;;;;;;;;;;4.20;99.90;;;2.78;61.04;102380.59;2567716;30;139184;-41
2022/03/07 09:18:33;;;;;;;;;;;4.20;99.90;;;2.81;59.05;102371.41;2567550;30;137067;-42
2022/03/07 09:21:02;;;;;;;;;;;4.30;99.90;;;2.92;58.46;102375.94;2569121;30;138237;-42
2022/03/07 09:23:34;;;;;;;;;;;4.40;99.90;;;2.99;58.21;102369.94;2568836;30;137061;-41
2022/03/07 09:26:02;;;;;;;;;;;4.40;99.90;;;3.04;58.22;102368.69;2568827;30;138364;-41
2022/03/07 09:28:29;;;;;;;;;;;4.50;99.90;;;3.09;58.61;102371.88;2568320;30;136925;-42
2022/03/07 09:30:56;;;;;;;;;;;4.50;99.90;;;3.02;56.19;102366.09;2567494;30;138306;-42
2022/03/07 09:33:24;;;;;;;;;;;4.50;99.10;;;3.16;57.23;102362.28;2566962;30;136966;-42
2022/03/07 09:35:51;;;;;;;;;;;4.60;99.90;;;3.30;57.56;102366.53;2568478;30;139290;-41
2022/03/07 09:38:19;;;;;;;;;;;4.70;99.90;;;3.39;56.32;102362.22;2567262;30;137233;-42
2022/03/07 09:40:46;;;;;;;;;;;4.80;99.40;;;3.42;56.23;102356.56;2568301;30;136789;-42
2022/03/07 09:43:15;;;;;;;;;;;4.90;99.50;;;3.47;56.62;102357.06;2566759;30;138087;-41
2022/03/07 09:45:43;;;;;;;;;;;4.90;99.40;;;3.52;57.15;102352.16;2569041;30;137432;-42
2022/03/07 09:48:15;;;;;;;;;;;5.00;99.70;;;3.66;56.85;102356.38;2567497;30;137473;-42
2022/03/07 09:50:44;;;;;;;;;;;5.00;99.60;;;3.72;56.83;102357.72;2565758;30;137270;-42
2022/03/07 09:53:13;;;;;;;;;;;5.10;99.80;;;3.78;56.53;102354.50;2568703;30;137036;-41
2022/03/07 09:55:40;;;;;;;;;;;5.20;99.40;;;3.90;57.10;102352.59;2568547;30;138362;-42
2022/03/07 09:58:08;;;;;;;;;;;5.30;99.50;;;3.97;55.42;102347.50;2565674;30;137268;-42
2022/03/07 10:00:40;;;;;;;;;;;5.40;98.70;;;3.98;55.37;102335.75;2564519;30;137341;-41
2022/03/07 10:03:14;;;;;;;;;;;5.40;98.90;;;4.01;53.97;102339.00;2568560;30;137313;-42
2022/03/07 10:05:46;;;;;;;;;;;5.40;97.60;;;4.08;55.29;102338.47;2566611;30;138473;-41
2022/03/07 10:08:30;;;;;;;;;;;5.50;98.20;;;4.17;55.49;102335.84;2567616;30;137792;-42
2022/03/07 10:11:06;;;;;;;;;;;5.60;98.30;;;4.20;55.13;102339.25;2567729;30;139339;-41
2022/03/07 10:13:34;;;;;;;;;;;5.60;98.10;;;4.29;54.60;102335.78;2568228;30;137758;-42
2022/03/07 10:16:05;;;;;;;;;;;5.70;98.00;;;4.27;56.47;102337.75;2567798;30;139321;-42
2022/03/07 10:18:33;;;;;;;;;;;5.70;98.90;;;4.31;54.83;102331.09;2568985;30;136782;-42
2022/03/07 10:21:03;;;;;;;;;;;5.80;97.80;;;4.38;55.67;102332.25;2567757;30;138478;-41
2022/03/07 10:23:31;;;;;;;;;;;5.80;98.50;;;4.31;54.83;102328.41;2567422;30;137415;-42
2022/03/07 10:26:09;;;;;;;;;;;5.80;97.60;;;4.38;54.57;102336.84;2566943;30;139480;-42
2022/03/07 10:28:42;;;;;;;;;;;5.80;97.40;;;4.38;52.65;102328.72;2567796;30;137107;-41
2022/03/07 10:31:16;;;;;;;;;;;5.90;96.20;;;4.41;55.12;102326.59;2567063;30;138359;-41
2022/03/07 10:33:45;;;;;;;;;;;5.80;97.80;;;4.53;53.99;102321.94;2567832;30;137124;-41
2022/03/07 10:36:13;;;;;;;;;;;5.90;97.00;;;4.64;55.34;102321.00;2568124;30;137221;-42
2022/03/07 10:38:43;;;;;;;;;;;6.00;97.70;;;4.71;53.50;102322.16;2567636;30;137261;-42
2022/03/07 10:41:10;;;;;;;;;;;6.10;96.50;;;4.77;51.62;102317.19;2568379;30;139231;-42
2022/03/07 10:43:48;;;;;;;;;;;6.20;95.40;;;4.57;51.12;102323.38;2567999;30;136976;-41
2022/03/07 10:46:26;;;;;;;;;;;6.10;94.90;;;4.46;52.38;102312.69;2568483;30;137266;-41
2022/03/07 10:48:53;;;;;;;;;;;6.00;95.00;;;4.58;52.90;102308.03;2567667;30;137218;-41
2022/03/07 10:51:21;;;;;;;;;;;6.00;95.60;;;4.56;51.43;102318.13;2568405;30;138301;-41
2022/03/07 10:53:49;;;;;;;;;;;6.10;94.50;;;4.59;50.97;102302.47;2568306;30;137124;-41
2022/03/07 10:56:17;;;;;;;;;;;6.10;94.30;;;4.69;52.06;102286.28;2568307;30;138086;-42
2022/03/07 10:58:48;;;;;;;;;;;6.10;95.20;;;4.75;51.58;102293.84;2569202;30;137370;-41
2022/03/07 11:01:28;;;;;;;;;;;6.10;95.00;;;4.95;52.87;102291.19;2568387;30;137395;-41
2022/03/07 11:03:56;;;;;;;;;;;6.30;95.60;;;4.86;52.05;102289.34;2568685;30;136888;-41
2022/03/07 11:06:25;;;;;;;;;;;6.40;94.80;;;4.83;49.11;102285.03;2568049;30;137205;-41
2022/03/07 11:08:54;;;;;;;;;;;6.30;93.00;;;4.95;53.36;102291.19;2568318;30;137046;-41
2022/03/07 11:11:22;;;;;;;;;;;6.30;95.80;;;4.97;50.80;102285.66;2566153;30;138497;-42
2022/03/07 11:13:55;;;;;;;;;;;6.40;94.10;;;4.92;50.34;102277.94;2568451;30;137016;-42
2022/03/07 11:16:27;;;;;;;;;;;6.40;93.90;;;4.99;50.16;102281.81;2567545;30;138345;-41
2022/03/07 11:18:55;;;;;;;;;;;6.50;93.40;;;5.04;49.26;102274.16;2566237;30;138210;-41